sensor_id;sensor_type;location;lat;lon;timestamp;temperature;humidity
66522;SHT31;53349;53.538;8.584;2023-03-01T00:00:17;4.01;75.58
66522;SHT31;53349;53.538;8.584;2023-03-01T00:02:43;4.01;75.45
66522;SHT31;53349;53.538;8.584;2023-03-01T00:05:08;4.03;75.29
66522;SHT31;53349;53.538;8.584;2023-03-01T00:07:35;4.03;75.22
66522;SHT31;53349;53.538;8.584;2023-03-01T00:10:00;4.08;75.27
66522;SHT31;53349;53.538;8.584;2023-03-01T00:12:26;4.12;75.10
66522;SHT31;53349;53.538;8.584;2023-03-01T00:14:51;4.13;74.98
66522;SHT31;53349;53.538;8.584;2023-03-01T00:17:16;4.09;74.79
66522;SHT31;53349;53.538;8.584;2023-03-01T00:19:42;4.02;74.78
66522;SHT31;53349;53.538;8.584;2023-03-01T00:22:07;3.99;75.30
66522;SHT31;53349;53.538;8.584;2023-03-01T00:24:33;3.99;75.22
66522;SHT31;53349;53.538;8.584;2023-03-01T00:27:00;3.99;75.22
66522;SHT31;53349;53.538;8.584;2023-03-01T00:29:27;3.92;75.12
66522;SHT31;53349;53.538;8.584;2023-03-01T00:31:52;3.89;75.24
66522;SHT31;53349;53.538;8.584;2023-03-01T00:34:19;3.89;75.12
66522;SHT31;53349;53.538;8.584;2023-03-01T00:36:44;3.91;74.94
66522;SHT31;53349;53.538;8.584;2023-03-01T00:39:13;3.84;74.76
66522;SHT31;53349;53.538;8.584;2023-03-01T00:41:42;3.80;74.78
66522;SHT31;53349;53.538;8.584;2023-03-01T00:44:08;3.84;74.70
66522;SHT31;53349;53.538;8.584;2023-03-01T00:46:34;3.81;74.66
66522;SHT31;53349;53.538;8.584;2023-03-01T00:48:59;3.80;74.41
66522;SHT31;53349;53.538;8.584;2023-03-01T00:51:27;3.82;74.36
66522;SHT31;53349;53.538;8.584;2023-03-01T00:53:55;3.82;74.28
66522;SHT31;53349;53.538;8.584;2023-03-01T00:56:21;3.80;74.27
66522;SHT31;53349;53.538;8.584;2023-03-01T00:58:47;3.66;74.51
66522;SHT31;53349;53.538;8.584;2023-03-01T01:01:19;3.57;74.72
66522;SHT31;53349;53.538;8.584;2023-03-01T01:03:50;3.53;74.93
66522;SHT31;53349;53.538;8.584;2023-03-01T01:06:40;3.44;75.07
66522;SHT31;53349;53.538;8.584;2023-03-01T01:09:06;3.41;75.20
66522;SHT31;53349;53.538;8.584;2023-03-01T01:11:35;3.39;75.34
66522;SHT31;53349;53.538;8.584;2023-03-01T01:14:01;3.41;75.49
66522;SHT31;53349;53.538;8.584;2023-03-01T01:16:27;3.44;75.37
66522;SHT31;53349;53.538;8.584;2023-03-01T01:19:01;3.40;75.35
66522;SHT31;53349;53.538;8.584;2023-03-01T01:21:28;3.39;75.55
66522;SHT31;53349;53.538;8.584;2023-03-01T01:23:54;3.48;75.41
66522;SHT31;53349;53.538;8.584;2023-03-01T01:26:23;3.48;75.20
66522;SHT31;53349;53.538;8.584;2023-03-01T01:28:49;3.43;75.08
66522;SHT31;53349;53.538;8.584;2023-03-01T01:31:18;3.39;75.40
66522;SHT31;53349;53.538;8.584;2023-03-01T01:33:45;3.34;75.25
66522;SHT31;53349;53.538;8.584;2023-03-01T01:36:11;3.33;75.46
66522;SHT31;53349;53.538;8.584;2023-03-01T01:38:37;3.30;75.33
66522;SHT31;53349;53.538;8.584;2023-03-01T01:41:03;3.34;75.36
66522;SHT31;53349;53.538;8.584;2023-03-01T01:43:49;3.36;75.14
66522;SHT31;53349;53.538;8.584;2023-03-01T01:46:32;3.30;75.19
66522;SHT31;53349;53.538;8.584;2023-03-01T01:49:02;3.24;75.27
66522;SHT31;53349;53.538;8.584;2023-03-01T01:51:32;3.30;75.27
66522;SHT31;53349;53.538;8.584;2023-03-01T01:54:00;3.34;74.92
66522;SHT31;53349;53.538;8.584;2023-03-01T01:56:28;3.34;74.62
66522;SHT31;53349;53.538;8.584;2023-03-01T01:58:56;3.36;74.31
66522;SHT31;53349;53.538;8.584;2023-03-01T02:01:23;3.26;74.09
66522;SHT31;53349;53.538;8.584;2023-03-01T02:03:48;3.30;73.96
66522;SHT31;53349;53.538;8.584;2023-03-01T02:06:27;3.13;73.66
66522;SHT31;53349;53.538;8.584;2023-03-01T02:08:59;3.03;73.90
66522;SHT31;53349;53.538;8.584;2023-03-01T02:11:27;3.06;73.92
66522;SHT31;53349;53.538;8.584;2023-03-01T02:13:54;3.02;73.70
66522;SHT31;53349;53.538;8.584;2023-03-01T02:16:19;2.96;73.72
66522;SHT31;53349;53.538;8.584;2023-03-01T02:18:46;2.93;73.93
66522;SHT31;53349;53.538;8.584;2023-03-01T02:27:04;2.91;74.10
66522;SHT31;53349;53.538;8.584;2023-03-01T02:29:29;2.91;73.93
66522;SHT31;53349;53.538;8.584;2023-03-01T02:31:56;2.81;74.10
66522;SHT31;53349;53.538;8.584;2023-03-01T02:34:24;2.72;74.23
66522;SHT31;53349;53.538;8.584;2023-03-01T02:37:02;2.71;74.27
66522;SHT31;53349;53.538;8.584;2023-03-01T02:39:33;2.74;74.46
66522;SHT31;53349;53.538;8.584;2023-03-01T02:42:02;2.71;74.40
66522;SHT31;53349;53.538;8.584;2023-03-01T02:44:30;2.64;74.31
66522;SHT31;53349;53.538;8.584;2023-03-01T02:47:01;2.54;74.37
66522;SHT31;53349;53.538;8.584;2023-03-01T02:49:30;2.47;74.56
66522;SHT31;53349;53.538;8.584;2023-03-01T02:55:02;2.41;74.49
66522;SHT31;53349;53.538;8.584;2023-03-01T02:57:36;2.40;74.27
66522;SHT31;53349;53.538;8.584;2023-03-01T03:00:06;2.42;74.20
66522;SHT31;53349;53.538;8.584;2023-03-01T03:02:34;2.44;73.68
66522;SHT31;53349;53.538;8.584;2023-03-01T03:04:59;2.40;73.03
66522;SHT31;53349;53.538;8.584;2023-03-01T03:07:24;2.38;73.15
66522;SHT31;53349;53.538;8.584;2023-03-01T03:09:50;2.33;72.98
66522;SHT31;53349;53.538;8.584;2023-03-01T03:12:15;2.30;72.99
66522;SHT31;53349;53.538;8.584;2023-03-01T03:14:42;2.24;72.88
66522;SHT31;53349;53.538;8.584;2023-03-01T03:17:08;2.34;72.60
66522;SHT31;53349;53.538;8.584;2023-03-01T03:19:33;2.33;72.00
66522;SHT31;53349;53.538;8.584;2023-03-01T03:21:59;2.26;72.18
66522;SHT31;53349;53.538;8.584;2023-03-01T03:24:24;2.10;72.44
66522;SHT31;53349;53.538;8.584;2023-03-01T03:26:49;2.16;72.54
66522;SHT31;53349;53.538;8.584;2023-03-01T03:29:19;2.10;72.65
66522;SHT31;53349;53.538;8.584;2023-03-01T03:31:46;2.07;72.77
66522;SHT31;53349;53.538;8.584;2023-03-01T03:34:16;2.02;72.72
66522;SHT31;53349;53.538;8.584;2023-03-01T03:36:42;2.03;72.55
66522;SHT31;53349;53.538;8.584;2023-03-01T03:39:07;2.05;72.15
66522;SHT31;53349;53.538;8.584;2023-03-01T03:41:34;2.07;71.70
66522;SHT31;53349;53.538;8.584;2023-03-01T03:44:00;2.02;71.76
66522;SHT31;53349;53.538;8.584;2023-03-01T03:46:27;2.02;71.96
66522;SHT31;53349;53.538;8.584;2023-03-01T03:48:53;2.00;72.16
66522;SHT31;53349;53.538;8.584;2023-03-01T03:51:19;1.93;72.67
66522;SHT31;53349;53.538;8.584;2023-03-01T03:53:45;1.89;72.97
66522;SHT31;53349;53.538;8.584;2023-03-01T03:56:13;1.83;73.17
66522;SHT31;53349;53.538;8.584;2023-03-01T03:58:40;1.90;72.89
66522;SHT31;53349;53.538;8.584;2023-03-01T04:01:06;1.82;72.85
66522;SHT31;53349;53.538;8.584;2023-03-01T04:03:32;1.75;73.00
66522;SHT31;53349;53.538;8.584;2023-03-01T04:05:59;1.80;73.16
66522;SHT31;53349;53.538;8.584;2023-03-01T04:08:26;1.72;73.03
66522;SHT31;53349;53.538;8.584;2023-03-01T04:10:57;1.65;73.32
66522;SHT31;53349;53.538;8.584;2023-03-01T04:13:24;1.65;73.57
66522;SHT31;53349;53.538;8.584;2023-03-01T04:15:54;1.63;73.48
66522;SHT31;53349;53.538;8.584;2023-03-01T04:18:22;1.66;73.53
66522;SHT31;53349;53.538;8.584;2023-03-01T04:20:47;1.77;73.45
66522;SHT31;53349;53.538;8.584;2023-03-01T04:23:17;1.79;73.51
66522;SHT31;53349;53.538;8.584;2023-03-01T04:25:54;1.83;73.75
66522;SHT31;53349;53.538;8.584;2023-03-01T04:28:24;1.89;73.89
66522;SHT31;53349;53.538;8.584;2023-03-01T04:30:51;1.83;74.12
66522;SHT31;53349;53.538;8.584;2023-03-01T04:33:17;1.82;74.44
66522;SHT31;53349;53.538;8.584;2023-03-01T04:35:45;1.80;74.70
66522;SHT31;53349;53.538;8.584;2023-03-01T04:38:13;1.76;75.25
66522;SHT31;53349;53.538;8.584;2023-03-01T04:40:39;1.72;75.74
66522;SHT31;53349;53.538;8.584;2023-03-01T04:43:04;1.73;76.64
66522;SHT31;53349;53.538;8.584;2023-03-01T04:45:31;1.75;76.82
66522;SHT31;53349;53.538;8.584;2023-03-01T04:47:57;1.70;77.23
66522;SHT31;53349;53.538;8.584;2023-03-01T04:50:22;1.72;77.22
66522;SHT31;53349;53.538;8.584;2023-03-01T04:52:50;1.69;77.54
66522;SHT31;53349;53.538;8.584;2023-03-01T04:55:15;1.73;77.63
66522;SHT31;53349;53.538;8.584;2023-03-01T04:57:42;1.79;77.58
66522;SHT31;53349;53.538;8.584;2023-03-01T05:00:11;1.90;77.23
66522;SHT31;53349;53.538;8.584;2023-03-01T05:02:36;1.83;77.13
66522;SHT31;53349;53.538;8.584;2023-03-01T05:05:05;1.80;77.25
66522;SHT31;53349;53.538;8.584;2023-03-01T05:07:30;1.86;77.32
66522;SHT31;53349;53.538;8.584;2023-03-01T05:09:56;1.93;77.07
66522;SHT31;53349;53.538;8.584;2023-03-01T05:12:24;1.95;77.05
66522;SHT31;53349;53.538;8.584;2023-03-01T05:14:49;1.96;76.80
66522;SHT31;53349;53.538;8.584;2023-03-01T05:17:14;1.97;76.71
66522;SHT31;53349;53.538;8.584;2023-03-01T05:19:41;1.93;76.64
66522;SHT31;53349;53.538;8.584;2023-03-01T05:22:11;1.86;76.73
66522;SHT31;53349;53.538;8.584;2023-03-01T05:24:37;1.79;76.79
66522;SHT31;53349;53.538;8.584;2023-03-01T05:27:04;1.82;76.97
66522;SHT31;53349;53.538;8.584;2023-03-01T05:29:31;1.90;76.73
66522;SHT31;53349;53.538;8.584;2023-03-01T05:31:59;1.95;76.39
66522;SHT31;53349;53.538;8.584;2023-03-01T05:34:27;1.99;76.15
66522;SHT31;53349;53.538;8.584;2023-03-01T05:36:54;1.96;75.93
66522;SHT31;53349;53.538;8.584;2023-03-01T05:39:21;1.89;76.07
66522;SHT31;53349;53.538;8.584;2023-03-01T05:41:46;1.87;76.23
66522;SHT31;53349;53.538;8.584;2023-03-01T05:44:16;1.85;76.37
66522;SHT31;53349;53.538;8.584;2023-03-01T05:46:41;1.87;76.63
66522;SHT31;53349;53.538;8.584;2023-03-01T05:49:06;1.95;76.55
66522;SHT31;53349;53.538;8.584;2023-03-01T05:51:32;2.00;76.61
66522;SHT31;53349;53.538;8.584;2023-03-01T05:53:57;2.02;76.84
66522;SHT31;53349;53.538;8.584;2023-03-01T05:56:23;2.05;77.18
66522;SHT31;53349;53.538;8.584;2023-03-01T05:58:49;2.07;77.33
66522;SHT31;53349;53.538;8.584;2023-03-01T06:01:17;2.11;77.43
66522;SHT31;53349;53.538;8.584;2023-03-01T06:03:44;2.11;77.76
66522;SHT31;53349;53.538;8.584;2023-03-01T06:06:11;2.10;78.03
66522;SHT31;53349;53.538;8.584;2023-03-01T06:08:37;2.10;78.12
66522;SHT31;53349;53.538;8.584;2023-03-01T06:11:02;2.13;78.07
66522;SHT31;53349;53.538;8.584;2023-03-01T06:13:28;2.16;78.05
66522;SHT31;53349;53.538;8.584;2023-03-01T06:15:56;2.17;78.23
66522;SHT31;53349;53.538;8.584;2023-03-01T06:18:21;2.17;78.58
66522;SHT31;53349;53.538;8.584;2023-03-01T06:20:55;2.11;78.95
66522;SHT31;53349;53.538;8.584;2023-03-01T06:23:23;2.13;79.17
66522;SHT31;53349;53.538;8.584;2023-03-01T06:25:48;2.03;79.54
66522;SHT31;53349;53.538;8.584;2023-03-01T06:28:15;2.09;79.91
66522;SHT31;53349;53.538;8.584;2023-03-01T06:30:40;2.06;80.02
66522;SHT31;53349;53.538;8.584;2023-03-01T06:33:05;2.10;80.26
66522;SHT31;53349;53.538;8.584;2023-03-01T06:35:34;2.05;80.85
66522;SHT31;53349;53.538;8.584;2023-03-01T06:38:05;2.06;81.17
66522;SHT31;53349;53.538;8.584;2023-03-01T06:40:42;2.06;81.34
66522;SHT31;53349;53.538;8.584;2023-03-01T06:43:07;2.03;81.53
66522;SHT31;53349;53.538;8.584;2023-03-01T06:45:33;2.14;81.74
66522;SHT31;53349;53.538;8.584;2023-03-01T06:48:08;2.20;81.40
66522;SHT31;53349;53.538;8.584;2023-03-01T06:50:34;2.28;81.32
66522;SHT31;53349;53.538;8.584;2023-03-01T06:53:00;2.31;80.69
66522;SHT31;53349;53.538;8.584;2023-03-01T06:55:27;2.33;80.00
66522;SHT31;53349;53.538;8.584;2023-03-01T06:58:05;2.31;79.75
66522;SHT31;53349;53.538;8.584;2023-03-01T07:00:31;2.33;79.44
66522;SHT31;53349;53.538;8.584;2023-03-01T07:02:59;2.37;79.53
66522;SHT31;53349;53.538;8.584;2023-03-01T07:05:25;2.38;79.26
66522;SHT31;53349;53.538;8.584;2023-03-01T07:07:53;2.38;78.68
66522;SHT31;53349;53.538;8.584;2023-03-01T07:10:19;2.41;78.66
66522;SHT31;53349;53.538;8.584;2023-03-01T07:12:44;2.42;78.49
66522;SHT31;53349;53.538;8.584;2023-03-01T07:15:10;2.45;78.39
66522;SHT31;53349;53.538;8.584;2023-03-01T07:17:35;2.41;78.58
66522;SHT31;53349;53.538;8.584;2023-03-01T07:20:01;2.40;78.72
66522;SHT31;53349;53.538;8.584;2023-03-01T07:22:26;2.41;78.83
66522;SHT31;53349;53.538;8.584;2023-03-01T07:24:52;2.42;79.14
66522;SHT31;53349;53.538;8.584;2023-03-01T07:27:17;2.37;79.46
66522;SHT31;53349;53.538;8.584;2023-03-01T07:29:42;2.41;79.99
66522;SHT31;53349;53.538;8.584;2023-03-01T07:32:09;2.42;80.59
66522;SHT31;53349;53.538;8.584;2023-03-01T07:34:39;2.52;80.76
66522;SHT31;53349;53.538;8.584;2023-03-01T07:37:06;2.64;80.35
66522;SHT31;53349;53.538;8.584;2023-03-01T07:39:33;2.72;80.19
66522;SHT31;53349;53.538;8.584;2023-03-01T07:42:04;2.82;79.82
66522;SHT31;53349;53.538;8.584;2023-03-01T07:44:30;2.88;79.42
66522;SHT31;53349;53.538;8.584;2023-03-01T07:46:56;2.92;78.97
66522;SHT31;53349;53.538;8.584;2023-03-01T07:49:21;2.92;78.64
66522;SHT31;53349;53.538;8.584;2023-03-01T07:51:50;2.92;78.79
66522;SHT31;53349;53.538;8.584;2023-03-01T07:54:18;3.00;79.00
66522;SHT31;53349;53.538;8.584;2023-03-01T07:56:45;3.00;78.67
66522;SHT31;53349;53.538;8.584;2023-03-01T07:59:10;3.02;78.65
66522;SHT31;53349;53.538;8.584;2023-03-01T08:01:35;3.13;78.64
66522;SHT31;53349;53.538;8.584;2023-03-01T08:04:04;3.16;78.14
66522;SHT31;53349;53.538;8.584;2023-03-01T08:06:29;3.17;77.62
66522;SHT31;53349;53.538;8.584;2023-03-01T08:08:57;3.24;77.43
66522;SHT31;53349;53.538;8.584;2023-03-01T08:11:22;3.27;77.25
66522;SHT31;53349;53.538;8.584;2023-03-01T08:13:48;3.44;77.14
66522;SHT31;53349;53.538;8.584;2023-03-01T08:16:18;3.54;76.98
66522;SHT31;53349;53.538;8.584;2023-03-01T08:18:44;3.57;76.64
66522;SHT31;53349;53.538;8.584;2023-03-01T08:21:12;3.57;76.49
66522;SHT31;53349;53.538;8.584;2023-03-01T08:23:40;3.70;76.75
66522;SHT31;53349;53.538;8.584;2023-03-01T08:26:15;3.85;76.54
66522;SHT31;53349;53.538;8.584;2023-03-01T08:28:42;4.06;76.46
66522;SHT31;53349;53.538;8.584;2023-03-01T08:31:15;4.23;76.04
66522;SHT31;53349;53.538;8.584;2023-03-01T08:33:41;4.06;76.05
66522;SHT31;53349;53.538;8.584;2023-03-01T08:36:06;4.40;77.19
66522;SHT31;53349;53.538;8.584;2023-03-01T08:38:33;4.64;76.13
66522;SHT31;53349;53.538;8.584;2023-03-01T08:41:02;4.87;75.62
66522;SHT31;53349;53.538;8.584;2023-03-01T08:43:28;5.01;74.63
66522;SHT31;53349;53.538;8.584;2023-03-01T08:45:55;5.08;74.24
66522;SHT31;53349;53.538;8.584;2023-03-01T08:48:21;5.18;73.33
66522;SHT31;53349;53.538;8.584;2023-03-01T08:50:46;5.15;72.97
66522;SHT31;53349;53.538;8.584;2023-03-01T08:53:12;5.20;72.29
66522;SHT31;53349;53.538;8.584;2023-03-01T08:55:37;5.32;72.46
66522;SHT31;53349;53.538;8.584;2023-03-01T08:58:05;5.38;72.31
66522;SHT31;53349;53.538;8.584;2023-03-01T09:00:30;5.42;71.90
66522;SHT31;53349;53.538;8.584;2023-03-01T09:02:55;5.53;71.97
66522;SHT31;53349;53.538;8.584;2023-03-01T09:05:21;5.55;71.53
66522;SHT31;53349;53.538;8.584;2023-03-01T09:07:46;5.62;71.61
66522;SHT31;53349;53.538;8.584;2023-03-01T09:10:12;5.65;71.57
66522;SHT31;53349;53.538;8.584;2023-03-01T09:12:38;5.80;71.72
66522;SHT31;53349;53.538;8.584;2023-03-01T09:15:03;5.82;71.50
66522;SHT31;53349;53.538;8.584;2023-03-01T09:17:30;5.86;71.34
66522;SHT31;53349;53.538;8.584;2023-03-01T09:19:56;5.91;71.37
66522;SHT31;53349;53.538;8.584;2023-03-01T09:22:21;5.89;70.82
66522;SHT31;53349;53.538;8.584;2023-03-01T09:24:47;5.85;70.41
66522;SHT31;53349;53.538;8.584;2023-03-01T09:27:15;5.83;70.34
66522;SHT31;53349;53.538;8.584;2023-03-01T09:29:41;5.96;70.05
66522;SHT31;53349;53.538;8.584;2023-03-01T09:32:10;5.97;69.54
66522;SHT31;53349;53.538;8.584;2023-03-01T09:34:37;5.96;69.73
66522;SHT31;53349;53.538;8.584;2023-03-01T09:37:12;5.86;69.69
66522;SHT31;53349;53.538;8.584;2023-03-01T09:39:39;5.99;69.74
66522;SHT31;53349;53.538;8.584;2023-03-01T09:42:06;5.91;69.72
66522;SHT31;53349;53.538;8.584;2023-03-01T09:44:46;6.00;69.59
66522;SHT31;53349;53.538;8.584;2023-03-01T09:47:22;6.32;68.86
66522;SHT31;53349;53.538;8.584;2023-03-01T09:50:00;6.51;68.35
66522;SHT31;53349;53.538;8.584;2023-03-01T09:52:46;6.79;68.19
66522;SHT31;53349;53.538;8.584;2023-03-01T09:55:17;6.91;67.59
66522;SHT31;53349;53.538;8.584;2023-03-01T10:01:03;7.65;66.40
66522;SHT31;53349;53.538;8.584;2023-03-01T10:03:58;7.99;65.00
66522;SHT31;53349;53.538;8.584;2023-03-01T10:06:25;8.42;63.97
66522;SHT31;53349;53.538;8.584;2023-03-01T10:09:02;8.73;62.33
66522;SHT31;53349;53.538;8.584;2023-03-01T10:11:42;9.10;61.84
66522;SHT31;53349;53.538;8.584;2023-03-01T10:14:43;9.40;60.29
66522;SHT31;53349;53.538;8.584;2023-03-01T10:17:46;9.90;59.42
66522;SHT31;53349;53.538;8.584;2023-03-01T10:20:43;10.08;58.74
66522;SHT31;53349;53.538;8.584;2023-03-01T10:23:11;10.22;58.31
66522;SHT31;53349;53.538;8.584;2023-03-01T10:31:40;10.73;57.67
66522;SHT31;53349;53.538;8.584;2023-03-01T10:36:56;11.06;57.42
66522;SHT31;53349;53.538;8.584;2023-03-01T10:39:25;11.12;56.87
66522;SHT31;53349;53.538;8.584;2023-03-01T10:41:57;11.19;55.98
66522;SHT31;53349;53.538;8.584;2023-03-01T10:47:03;11.24;56.34
66522;SHT31;53349;53.538;8.584;2023-03-01T10:49:28;11.15;56.05
66522;SHT31;53349;53.538;8.584;2023-03-01T10:51:54;11.17;56.13
66522;SHT31;53349;53.538;8.584;2023-03-01T10:54:28;11.38;55.80
66522;SHT31;53349;53.538;8.584;2023-03-01T10:56:56;11.22;55.72
66522;SHT31;53349;53.538;8.584;2023-03-01T10:59:26;11.19;55.76
66522;SHT31;53349;53.538;8.584;2023-03-01T11:02:20;11.37;55.14
66522;SHT31;53349;53.538;8.584;2023-03-01T11:05:19;11.41;55.62
66522;SHT31;53349;53.538;8.584;2023-03-01T11:10:28;11.41;54.70
66522;SHT31;53349;53.538;8.584;2023-03-01T11:13:14;11.40;54.46
66522;SHT31;53349;53.538;8.584;2023-03-01T11:15:40;11.41;54.82
66522;SHT31;53349;53.538;8.584;2023-03-01T11:18:21;11.27;54.80
66522;SHT31;53349;53.538;8.584;2023-03-01T11:20:51;11.46;54.64
66522;SHT31;53349;53.538;8.584;2023-03-01T11:23:18;11.36;54.80
66522;SHT31;53349;53.538;8.584;2023-03-01T11:25:59;11.54;54.85
66522;SHT31;53349;53.538;8.584;2023-03-01T11:28:27;11.54;54.82
66522;SHT31;53349;53.538;8.584;2023-03-01T11:31:03;11.50;55.04
66522;SHT31;53349;53.538;8.584;2023-03-01T11:38:33;11.56;54.09
66522;SHT31;53349;53.538;8.584;2023-03-01T11:41:20;11.65;53.40
66522;SHT31;53349;53.538;8.584;2023-03-01T11:44:01;11.73;53.33
66522;SHT31;53349;53.538;8.584;2023-03-01T11:46:34;11.88;53.36
66522;SHT31;53349;53.538;8.584;2023-03-01T11:49:52;11.98;52.79
66522;SHT31;53349;53.538;8.584;2023-03-01T11:55:24;11.73;53.07
66522;SHT31;53349;53.538;8.584;2023-03-01T11:58:17;11.57;53.40
66522;SHT31;53349;53.538;8.584;2023-03-01T12:12:56;10.73;55.15
66522;SHT31;53349;53.538;8.584;2023-03-01T12:21:38;10.65;55.09
66522;SHT31;53349;53.538;8.584;2023-03-01T12:24:31;10.55;54.82
66522;SHT31;53349;53.538;8.584;2023-03-01T12:41:15;10.25;55.11
66522;SHT31;53349;53.538;8.584;2023-03-01T12:49:15;10.27;55.63
66522;SHT31;53349;53.538;8.584;2023-03-01T12:51:51;10.28;57.22
66522;SHT31;53349;53.538;8.584;2023-03-01T12:54:26;10.22;56.53
66522;SHT31;53349;53.538;8.584;2023-03-01T12:56:55;10.22;56.21
66522;SHT31;53349;53.538;8.584;2023-03-01T12:59:38;10.17;55.99
66522;SHT31;53349;53.538;8.584;2023-03-01T13:07:31;9.94;56.26
66522;SHT31;53349;53.538;8.584;2023-03-01T13:10:22;9.97;56.39
66522;SHT31;53349;53.538;8.584;2023-03-01T13:15:31;9.96;56.32
66522;SHT31;53349;53.538;8.584;2023-03-01T13:18:00;9.96;57.31
66522;SHT31;53349;53.538;8.584;2023-03-01T13:23:25;9.89;57.61
66522;SHT31;53349;53.538;8.584;2023-03-01T13:31:04;9.77;57.72
66522;SHT31;53349;53.538;8.584;2023-03-01T13:35:57;9.79;57.24
66522;SHT31;53349;53.538;8.584;2023-03-01T13:38:55;9.69;57.91
66522;SHT31;53349;53.538;8.584;2023-03-01T13:41:51;9.59;58.61
66522;SHT31;53349;53.538;8.584;2023-03-01T13:46:50;9.66;58.25
66522;SHT31;53349;53.538;8.584;2023-03-01T13:49:25;9.55;57.77
66522;SHT31;53349;53.538;8.584;2023-03-01T13:51:51;9.63;57.64
66522;SHT31;53349;53.538;8.584;2023-03-01T13:54:39;9.63;57.85
66522;SHT31;53349;53.538;8.584;2023-03-01T13:57:04;9.66;57.85
66522;SHT31;53349;53.538;8.584;2023-03-01T13:59:30;9.55;57.90
66522;SHT31;53349;53.538;8.584;2023-03-01T14:01:58;9.43;58.10
66522;SHT31;53349;53.538;8.584;2023-03-01T14:04:29;9.32;58.42
66522;SHT31;53349;53.538;8.584;2023-03-01T14:07:18;9.35;58.54
66522;SHT31;53349;53.538;8.584;2023-03-01T14:09:46;9.18;58.91
66522;SHT31;53349;53.538;8.584;2023-03-01T14:12:40;9.12;59.14
66522;SHT31;53349;53.538;8.584;2023-03-01T14:15:39;9.15;59.30
66522;SHT31;53349;53.538;8.584;2023-03-01T14:18:20;9.10;59.49
66522;SHT31;53349;53.538;8.584;2023-03-01T14:20:48;9.08;60.00
66522;SHT31;53349;53.538;8.584;2023-03-01T14:23:25;8.97;60.05
66522;SHT31;53349;53.538;8.584;2023-03-01T14:25:54;9.03;60.30
66522;SHT31;53349;53.538;8.584;2023-03-01T14:28:35;9.01;59.75
66522;SHT31;53349;53.538;8.584;2023-03-01T14:31:31;8.84;59.59
66522;SHT31;53349;53.538;8.584;2023-03-01T14:33:57;8.68;59.86
66522;SHT31;53349;53.538;8.584;2023-03-01T14:36:28;8.71;59.99
66522;SHT31;53349;53.538;8.584;2023-03-01T14:38:54;8.71;60.16
66522;SHT31;53349;53.538;8.584;2023-03-01T14:41:22;8.73;60.16
66522;SHT31;53349;53.538;8.584;2023-03-01T14:43:53;8.67;60.52
66522;SHT31;53349;53.538;8.584;2023-03-01T14:46:38;8.73;60.82
66522;SHT31;53349;53.538;8.584;2023-03-01T14:49:10;8.68;61.12
66522;SHT31;53349;53.538;8.584;2023-03-01T14:51:38;8.70;61.54
66522;SHT31;53349;53.538;8.584;2023-03-01T14:57:05;8.73;61.62
66522;SHT31;53349;53.538;8.584;2023-03-01T14:59:33;8.68;61.62
66522;SHT31;53349;53.538;8.584;2023-03-01T15:01:59;8.59;62.18
66522;SHT31;53349;53.538;8.584;2023-03-01T15:04:24;8.46;63.26
66522;SHT31;53349;53.538;8.584;2023-03-01T15:06:52;8.40;63.96
66522;SHT31;53349;53.538;8.584;2023-03-01T15:09:18;8.40;64.24
66522;SHT31;53349;53.538;8.584;2023-03-01T15:11:45;8.32;64.70
66522;SHT31;53349;53.538;8.584;2023-03-01T15:14:27;8.17;65.22
66522;SHT31;53349;53.538;8.584;2023-03-01T15:16:53;8.15;65.35
66522;SHT31;53349;53.538;8.584;2023-03-01T15:19:19;8.06;65.40
66522;SHT31;53349;53.538;8.584;2023-03-01T15:21:48;8.12;65.55
66522;SHT31;53349;53.538;8.584;2023-03-01T15:24:26;8.06;65.65
66522;SHT31;53349;53.538;8.584;2023-03-01T15:26:59;8.06;65.74
66522;SHT31;53349;53.538;8.584;2023-03-01T15:29:28;7.99;65.94
66522;SHT31;53349;53.538;8.584;2023-03-01T15:34:44;7.89;66.34
66522;SHT31;53349;53.538;8.584;2023-03-01T15:37:45;7.84;66.41
66522;SHT31;53349;53.538;8.584;2023-03-01T15:40:23;7.72;66.51
66522;SHT31;53349;53.538;8.584;2023-03-01T15:42:50;7.72;66.68
66522;SHT31;53349;53.538;8.584;2023-03-01T15:45:25;7.65;66.81
66522;SHT31;53349;53.538;8.584;2023-03-01T15:47:53;7.57;66.87
66522;SHT31;53349;53.538;8.584;2023-03-01T15:50:28;7.53;67.12
66522;SHT31;53349;53.538;8.584;2023-03-01T15:52:56;7.43;67.35
66522;SHT31;53349;53.538;8.584;2023-03-01T15:55:25;7.37;67.63
66522;SHT31;53349;53.538;8.584;2023-03-01T15:57:58;7.37;67.82
66522;SHT31;53349;53.538;8.584;2023-03-01T16:00:27;7.24;68.04
66522;SHT31;53349;53.538;8.584;2023-03-01T16:02:53;7.19;68.23
66522;SHT31;53349;53.538;8.584;2023-03-01T16:05:24;7.02;68.68
66522;SHT31;53349;53.538;8.584;2023-03-01T16:07:51;6.97;68.62
66522;SHT31;53349;53.538;8.584;2023-03-01T16:10:17;6.93;68.88
66522;SHT31;53349;53.538;8.584;2023-03-01T16:12:42;6.83;69.12
66522;SHT31;53349;53.538;8.584;2023-03-01T16:15:17;6.65;69.27
66522;SHT31;53349;53.538;8.584;2023-03-01T16:17:43;6.56;69.66
66522;SHT31;53349;53.538;8.584;2023-03-01T16:20:09;6.59;69.63
66522;SHT31;53349;53.538;8.584;2023-03-01T16:22:36;6.55;70.18
66522;SHT31;53349;53.538;8.584;2023-03-01T16:25:01;6.61;70.19
66522;SHT31;53349;53.538;8.584;2023-03-01T16:27:26;6.61;70.14
66522;SHT31;53349;53.538;8.584;2023-03-01T16:29:52;6.46;70.40
66522;SHT31;53349;53.538;8.584;2023-03-01T16:32:17;6.35;70.58
66522;SHT31;53349;53.538;8.584;2023-03-01T16:34:43;6.30;70.47
66522;SHT31;53349;53.538;8.584;2023-03-01T16:37:14;6.23;70.55
66522;SHT31;53349;53.538;8.584;2023-03-01T16:39:40;6.21;70.62
66522;SHT31;53349;53.538;8.584;2023-03-01T16:42:05;6.11;71.05
66522;SHT31;53349;53.538;8.584;2023-03-01T16:44:30;5.99;71.57
66522;SHT31;53349;53.538;8.584;2023-03-01T16:46:56;5.97;71.63
66522;SHT31;53349;53.538;8.584;2023-03-01T16:49:22;5.99;71.82
66522;SHT31;53349;53.538;8.584;2023-03-01T16:51:47;5.99;71.85
66522;SHT31;53349;53.538;8.584;2023-03-01T16:54:14;5.96;71.86
66522;SHT31;53349;53.538;8.584;2023-03-01T16:56:39;5.91;71.98
66522;SHT31;53349;53.538;8.584;2023-03-01T16:59:06;5.79;72.18
66522;SHT31;53349;53.538;8.584;2023-03-01T17:01:38;5.77;72.35
66522;SHT31;53349;53.538;8.584;2023-03-01T17:04:03;5.79;72.24
66522;SHT31;53349;53.538;8.584;2023-03-01T17:06:30;5.72;72.29
66522;SHT31;53349;53.538;8.584;2023-03-01T17:08:59;5.56;72.63
66522;SHT31;53349;53.538;8.584;2023-03-01T17:11:25;5.55;72.98
66522;SHT31;53349;53.538;8.584;2023-03-01T17:13:51;5.51;73.17
66522;SHT31;53349;53.538;8.584;2023-03-01T17:16:18;5.52;73.27
66522;SHT31;53349;53.538;8.584;2023-03-01T17:18:45;5.46;73.35
66522;SHT31;53349;53.538;8.584;2023-03-01T17:21:14;5.43;73.51
66522;SHT31;53349;53.538;8.584;2023-03-01T17:23:42;5.35;73.76
66522;SHT31;53349;53.538;8.584;2023-03-01T17:26:07;5.34;73.78
66522;SHT31;53349;53.538;8.584;2023-03-01T17:28:37;5.21;74.21
66522;SHT31;53349;53.538;8.584;2023-03-01T17:31:04;5.27;74.16
66522;SHT31;53349;53.538;8.584;2023-03-01T17:33:30;5.31;74.06
66522;SHT31;53349;53.538;8.584;2023-03-01T17:35:56;5.29;74.01
66522;SHT31;53349;53.538;8.584;2023-03-01T17:38:24;5.27;74.08